sensor_id;sensor_type;location;lat;lon;timestamp;P1;durP1;ratioP1;P2;durP2;ratioP2
17424;SDS011;8830;50.978;5.058;2022-07-22T00:00:51;7.20;;;3.87;;
17424;SDS011;8830;50.978;5.058;2022-07-22T00:03:18;8.07;;;4.50;;
17424;SDS011;8830;50.978;5.058;2022-07-22T00:05:45;11.37;;;4.07;;
17424;SDS011;8830;50.978;5.058;2022-07-22T00:08:12;9.63;;;4.10;;
17424;SDS011;8830;50.978;5.058;2022-07-22T00:10:40;10.90;;;4.40;;
17424;SDS011;8830;50.978;5.058;2022-07-22T00:13:08;10.43;;;4.03;;
17424;SDS011;8830;50.978;5.058;2022-07-22T00:15:36;11.60;;;4.77;;
17424;SDS011;8830;50.978;5.058;2022-07-22T00:18:03;12.53;;;4.40;;
17424;SDS011;8830;50.978;5.058;2022-07-22T00:20:31;11.00;;;5.30;;
17424;SDS011;8830;50.978;5.058;2022-07-22T00:22:58;11.33;;;4.43;;
17424;SDS011;8830;50.978;5.058;2022-07-22T00:25:25;9.27;;;4.23;;
17424;SDS011;8830;50.978;5.058;2022-07-22T00:27:53;9.97;;;4.37;;
17424;SDS011;8830;50.978;5.058;2022-07-22T00:30:21;15.07;;;4.67;;
17424;SDS011;8830;50.978;5.058;2022-07-22T00:32:50;12.67;;;4.20;;
17424;SDS011;8830;50.978;5.058;2022-07-22T00:35:17;10.87;;;4.13;;
17424;SDS011;8830;50.978;5.058;2022-07-22T00:37:44;13.60;;;4.23;;
17424;SDS011;8830;50.978;5.058;2022-07-22T00:40:11;10.53;;;4.07;;
17424;SDS011;8830;50.978;5.058;2022-07-22T00:42:38;10.10;;;4.97;;
17424;SDS011;8830;50.978;5.058;2022-07-22T00:45:06;6.10;;;3.90;;
17424;SDS011;8830;50.978;5.058;2022-07-22T00:47:35;8.13;;;4.20;;
17424;SDS011;8830;50.978;5.058;2022-07-22T00:50:02;13.50;;;4.57;;
17424;SDS011;8830;50.978;5.058;2022-07-22T00:52:30;8.53;;;4.33;;
17424;SDS011;8830;50.978;5.058;2022-07-22T00:54:58;15.53;;;4.50;;
17424;SDS011;8830;50.978;5.058;2022-07-22T00:57:28;11.70;;;4.30;;
17424;SDS011;8830;50.978;5.058;2022-07-22T00:59:55;13.57;;;4.27;;
17424;SDS011;8830;50.978;5.058;2022-07-22T01:02:23;12.30;;;4.73;;
17424;SDS011;8830;50.978;5.058;2022-07-22T01:04:51;10.03;;;3.97;;
17424;SDS011;8830;50.978;5.058;2022-07-22T01:07:18;7.70;;;3.63;;
17424;SDS011;8830;50.978;5.058;2022-07-22T01:09:45;11.43;;;4.27;;
17424;SDS011;8830;50.978;5.058;2022-07-22T01:12:13;13.83;;;4.77;;
17424;SDS011;8830;50.978;5.058;2022-07-22T01:14:40;11.80;;;4.30;;
17424;SDS011;8830;50.978;5.058;2022-07-22T01:17:07;13.07;;;4.00;;
17424;SDS011;8830;50.978;5.058;2022-07-22T01:19:37;12.20;;;4.53;;
17424;SDS011;8830;50.978;5.058;2022-07-22T01:22:05;6.30;;;3.63;;
17424;SDS011;8830;50.978;5.058;2022-07-22T01:24:33;15.93;;;3.93;;
17424;SDS011;8830;50.978;5.058;2022-07-22T01:27:00;11.90;;;4.70;;
17424;SDS011;8830;50.978;5.058;2022-07-22T01:29:28;6.60;;;3.97;;
17424;SDS011;8830;50.978;5.058;2022-07-22T01:31:55;13.33;;;4.67;;
17424;SDS011;8830;50.978;5.058;2022-07-22T01:34:23;13.07;;;4.60;;
17424;SDS011;8830;50.978;5.058;2022-07-22T01:36:50;11.43;;;4.60;;
17424;SDS011;8830;50.978;5.058;2022-07-22T01:39:19;7.03;;;4.40;;
17424;SDS011;8830;50.978;5.058;2022-07-22T01:41:47;12.37;;;4.60;;
17424;SDS011;8830;50.978;5.058;2022-07-22T01:44:14;12.90;;;4.93;;
17424;SDS011;8830;50.978;5.058;2022-07-22T01:46:41;8.37;;;4.40;;
17424;SDS011;8830;50.978;5.058;2022-07-22T01:49:08;11.57;;;4.87;;
17424;SDS011;8830;50.978;5.058;2022-07-22T01:51:35;7.30;;;4.07;;
17424;SDS011;8830;50.978;5.058;2022-07-22T01:54:02;16.70;;;4.70;;
17424;SDS011;8830;50.978;5.058;2022-07-22T01:56:31;11.73;;;4.60;;
17424;SDS011;8830;50.978;5.058;2022-07-22T01:58:58;5.40;;;4.20;;
17424;SDS011;8830;50.978;5.058;2022-07-22T02:01:25;9.97;;;4.50;;
17424;SDS011;8830;50.978;5.058;2022-07-22T02:03:52;8.63;;;4.27;;
17424;SDS011;8830;50.978;5.058;2022-07-22T02:06:21;8.77;;;4.20;;
17424;SDS011;8830;50.978;5.058;2022-07-22T02:08:48;8.97;;;4.20;;
17424;SDS011;8830;50.978;5.058;2022-07-22T02:11:15;11.87;;;4.43;;
17424;SDS011;8830;50.978;5.058;2022-07-22T02:13:44;9.07;;;4.27;;
17424;SDS011;8830;50.978;5.058;2022-07-22T02:16:11;11.87;;;5.20;;
17424;SDS011;8830;50.978;5.058;2022-07-22T02:18:38;11.70;;;4.93;;
17424;SDS011;8830;50.978;5.058;2022-07-22T02:21:06;8.47;;;4.80;;
17424;SDS011;8830;50.978;5.058;2022-07-22T02:23:33;9.30;;;4.80;;
17424;SDS011;8830;50.978;5.058;2022-07-22T02:26:00;11.97;;;5.80;;
17424;SDS011;8830;50.978;5.058;2022-07-22T02:28:28;13.40;;;5.43;;
17424;SDS011;8830;50.978;5.058;2022-07-22T02:30:56;10.87;;;4.73;;
17424;SDS011;8830;50.978;5.058;2022-07-22T02:33:23;9.83;;;5.33;;
17424;SDS011;8830;50.978;5.058;2022-07-22T02:35:50;7.60;;;4.90;;
17424;SDS011;8830;50.978;5.058;2022-07-22T02:38:17;13.77;;;4.97;;
17424;SDS011;8830;50.978;5.058;2022-07-22T02:40:44;12.53;;;4.87;;
17424;SDS011;8830;50.978;5.058;2022-07-22T02:43:11;9.50;;;5.20;;
17424;SDS011;8830;50.978;5.058;2022-07-22T02:45:39;10.77;;;4.90;;
17424;SDS011;8830;50.978;5.058;2022-07-22T02:48:07;8.13;;;5.57;;
17424;SDS011;8830;50.978;5.058;2022-07-22T02:50:34;11.83;;;5.13;;
17424;SDS011;8830;50.978;5.058;2022-07-22T02:53:03;8.10;;;4.73;;
17424;SDS011;8830;50.978;5.058;2022-07-22T02:55:30;9.43;;;4.90;;
17424;SDS011;8830;50.978;5.058;2022-07-22T02:57:57;11.63;;;5.70;;
17424;SDS011;8830;50.978;5.058;2022-07-22T03:00:31;22.13;;;6.47;;
17424;SDS011;8830;50.978;5.058;2022-07-22T03:02:59;8.43;;;4.97;;
17424;SDS011;8830;50.978;5.058;2022-07-22T03:05:27;13.57;;;4.90;;
17424;SDS011;8830;50.978;5.058;2022-07-22T03:07:54;9.43;;;4.97;;
17424;SDS011;8830;50.978;5.058;2022-07-22T03:10:21;8.00;;;4.70;;
17424;SDS011;8830;50.978;5.058;2022-07-22T03:12:48;11.70;;;5.53;;
17424;SDS011;8830;50.978;5.058;2022-07-22T03:15:16;11.03;;;5.33;;
17424;SDS011;8830;50.978;5.058;2022-07-22T03:17:43;10.93;;;4.97;;
17424;SDS011;8830;50.978;5.058;2022-07-22T03:20:10;9.83;;;5.03;;
17424;SDS011;8830;50.978;5.058;2022-07-22T03:22:39;9.10;;;5.07;;
17424;SDS011;8830;50.978;5.058;2022-07-22T03:25:06;12.10;;;5.10;;
17424;SDS011;8830;50.978;5.058;2022-07-22T03:27:34;7.10;;;4.57;;
17424;SDS011;8830;50.978;5.058;2022-07-22T03:30:01;15.00;;;5.00;;
17424;SDS011;8830;50.978;5.058;2022-07-22T03:32:29;12.17;;;4.93;;
17424;SDS011;8830;50.978;5.058;2022-07-22T03:34:56;10.33;;;5.63;;
17424;SDS011;8830;50.978;5.058;2022-07-22T03:37:23;10.23;;;4.90;;
17424;SDS011;8830;50.978;5.058;2022-07-22T03:39:52;12.93;;;5.37;;
17424;SDS011;8830;50.978;5.058;2022-07-22T03:42:19;6.40;;;4.50;;
17424;SDS011;8830;50.978;5.058;2022-07-22T03:44:46;13.10;;;4.80;;
17424;SDS011;8830;50.978;5.058;2022-07-22T03:47:17;9.13;;;5.37;;
17424;SDS011;8830;50.978;5.058;2022-07-22T03:49:45;14.70;;;6.27;;
17424;SDS011;8830;50.978;5.058;2022-07-22T03:52:12;12.70;;;6.03;;
17424;SDS011;8830;50.978;5.058;2022-07-22T03:54:39;11.93;;;6.90;;
17424;SDS011;8830;50.978;5.058;2022-07-22T03:57:08;9.13;;;7.00;;
17424;SDS011;8830;50.978;5.058;2022-07-22T03:59:35;11.37;;;7.00;;
17424;SDS011;8830;50.978;5.058;2022-07-22T04:02:03;11.30;;;6.07;;
17424;SDS011;8830;50.978;5.058;2022-07-22T04:04:30;11.17;;;6.70;;
17424;SDS011;8830;50.978;5.058;2022-07-22T04:06:57;13.23;;;6.67;;
17424;SDS011;8830;50.978;5.058;2022-07-22T04:09:25;17.70;;;7.60;;
17424;SDS011;8830;50.978;5.058;2022-07-22T04:11:52;9.87;;;6.90;;
17424;SDS011;8830;50.978;5.058;2022-07-22T04:14:20;13.37;;;7.37;;
17424;SDS011;8830;50.978;5.058;2022-07-22T04:16:47;9.70;;;6.70;;
17424;SDS011;8830;50.978;5.058;2022-07-22T04:19:15;12.07;;;7.00;;
17424;SDS011;8830;50.978;5.058;2022-07-22T04:21:42;7.83;;;6.87;;
17424;SDS011;8830;50.978;5.058;2022-07-22T04:24:09;15.20;;;7.10;;
17424;SDS011;8830;50.978;5.058;2022-07-22T04:26:36;14.70;;;6.57;;
17424;SDS011;8830;50.978;5.058;2022-07-22T04:29:04;9.43;;;6.87;;
17424;SDS011;8830;50.978;5.058;2022-07-22T04:31:32;14.33;;;7.87;;
17424;SDS011;8830;50.978;5.058;2022-07-22T04:33:59;11.80;;;7.23;;
17424;SDS011;8830;50.978;5.058;2022-07-22T04:36:27;9.60;;;6.13;;
17424;SDS011;8830;50.978;5.058;2022-07-22T04:38:54;6.40;;;5.63;;
17424;SDS011;8830;50.978;5.058;2022-07-22T04:41:21;16.77;;;6.57;;
17424;SDS011;8830;50.978;5.058;2022-07-22T04:43:49;11.00;;;4.60;;
17424;SDS011;8830;50.978;5.058;2022-07-22T04:46:16;9.63;;;5.17;;
17424;SDS011;8830;50.978;5.058;2022-07-22T04:48:45;10.43;;;4.50;;
17424;SDS011;8830;50.978;5.058;2022-07-22T04:51:12;9.40;;;4.87;;
17424;SDS011;8830;50.978;5.058;2022-07-22T04:53:39;9.17;;;5.60;;
17424;SDS011;8830;50.978;5.058;2022-07-22T04:56:06;14.43;;;6.47;;
17424;SDS011;8830;50.978;5.058;2022-07-22T04:58:33;13.47;;;6.50;;
17424;SDS011;8830;50.978;5.058;2022-07-22T05:01:01;11.63;;;6.83;;
17424;SDS011;8830;50.978;5.058;2022-07-22T05:03:28;7.70;;;6.70;;
17424;SDS011;8830;50.978;5.058;2022-07-22T05:05:57;9.83;;;6.97;;
17424;SDS011;8830;50.978;5.058;2022-07-22T05:08:24;9.63;;;6.53;;
17424;SDS011;8830;50.978;5.058;2022-07-22T05:10:52;11.33;;;7.03;;
17424;SDS011;8830;50.978;5.058;2022-07-22T05:13:19;13.70;;;7.30;;
17424;SDS011;8830;50.978;5.058;2022-07-22T05:15:46;10.57;;;6.73;;
17424;SDS011;8830;50.978;5.058;2022-07-22T05:18:13;6.25;;;5.45;;
17424;SDS011;8830;50.978;5.058;2022-07-22T05:20:41;8.55;;;6.35;;
17424;SDS011;8830;50.978;5.058;2022-07-22T05:23:10;8.95;;;6.38;;
17424;SDS011;8830;50.978;5.058;2022-07-22T05:25:37;7.82;;;5.82;;
17424;SDS011;8830;50.978;5.058;2022-07-22T05:28:04;12.27;;;6.00;;
17424;SDS011;8830;50.978;5.058;2022-07-22T05:30:32;6.72;;;6.13;;
17424;SDS011;8830;50.978;5.058;2022-07-22T05:32:59;8.90;;;6.00;;
17424;SDS011;8830;50.978;5.058;2022-07-22T05:35:26;9.77;;;6.80;;
17424;SDS011;8830;50.978;5.058;2022-07-22T05:37:54;10.60;;;6.55;;
17424;SDS011;8830;50.978;5.058;2022-07-22T05:40:22;9.73;;;6.40;;
17424;SDS011;8830;50.978;5.058;2022-07-22T05:42:49;8.90;;;7.10;;
17424;SDS011;8830;50.978;5.058;2022-07-22T05:45:17;11.27;;;8.65;;
17424;SDS011;8830;50.978;5.058;2022-07-22T05:47:44;12.60;;;8.25;;
17424;SDS011;8830;50.978;5.058;2022-07-22T05:50:11;9.27;;;6.55;;
17424;SDS011;8830;50.978;5.058;2022-07-22T05:52:38;9.35;;;6.97;;
17424;SDS011;8830;50.978;5.058;2022-07-22T05:55:05;8.45;;;6.78;;
17424;SDS011;8830;50.978;5.058;2022-07-22T05:57:36;8.60;;;6.35;;
17424;SDS011;8830;50.978;5.058;2022-07-22T06:00:04;9.40;;;6.57;;
17424;SDS011;8830;50.978;5.058;2022-07-22T06:02:32;10.52;;;5.82;;
17424;SDS011;8830;50.978;5.058;2022-07-22T06:04:59;7.85;;;5.10;;
17424;SDS011;8830;50.978;5.058;2022-07-22T06:07:26;7.72;;;5.05;;
17424;SDS011;8830;50.978;5.058;2022-07-22T06:09:53;5.68;;;4.18;;
17424;SDS011;8830;50.978;5.058;2022-07-22T06:12:21;4.90;;;4.40;;
17424;SDS011;8830;50.978;5.058;2022-07-22T06:14:49;5.35;;;4.70;;
17424;SDS011;8830;50.978;5.058;2022-07-22T06:17:16;5.57;;;4.63;;
17424;SDS011;8830;50.978;5.058;2022-07-22T06:19:43;7.78;;;4.35;;
17424;SDS011;8830;50.978;5.058;2022-07-22T06:22:10;9.60;;;3.97;;
17424;SDS011;8830;50.978;5.058;2022-07-22T06:24:37;7.43;;;4.13;;
17424;SDS011;8830;50.978;5.058;2022-07-22T06:27:04;8.80;;;3.75;;
17424;SDS011;8830;50.978;5.058;2022-07-22T06:29:31;7.53;;;4.07;;
17424;SDS011;8830;50.978;5.058;2022-07-22T06:31:59;5.30;;;3.85;;
17424;SDS011;8830;50.978;5.058;2022-07-22T06:34:26;6.90;;;3.65;;
17424;SDS011;8830;50.978;5.058;2022-07-22T06:36:54;3.13;;;2.53;;
17424;SDS011;8830;50.978;5.058;2022-07-22T06:39:21;4.68;;;2.72;;
17424;SDS011;8830;50.978;5.058;2022-07-22T06:41:49;4.97;;;1.95;;
17424;SDS011;8830;50.978;5.058;2022-07-22T06:44:16;3.88;;;2.47;;
17424;SDS011;8830;50.978;5.058;2022-07-22T06:46:43;2.88;;;1.98;;
17424;SDS011;8830;50.978;5.058;2022-07-22T06:49:15;3.10;;;2.10;;
17424;SDS011;8830;50.978;5.058;2022-07-22T06:51:42;3.15;;;1.90;;
17424;SDS011;8830;50.978;5.058;2022-07-22T06:54:09;4.40;;;1.70;;
17424;SDS011;8830;50.978;5.058;2022-07-22T06:56:37;2.90;;;1.70;;
17424;SDS011;8830;50.978;5.058;2022-07-22T06:59:04;3.45;;;1.80;;
17424;SDS011;8830;50.978;5.058;2022-07-22T07:01:31;2.63;;;1.58;;
17424;SDS011;8830;50.978;5.058;2022-07-22T07:03:58;3.78;;;1.70;;
17424;SDS011;8830;50.978;5.058;2022-07-22T07:06:27;4.85;;;1.77;;
17424;SDS011;8830;50.978;5.058;2022-07-22T07:08:54;2.38;;;1.52;;
17424;SDS011;8830;50.978;5.058;2022-07-22T07:11:22;1.73;;;1.50;;
17424;SDS011;8830;50.978;5.058;2022-07-22T07:13:49;2.83;;;1.30;;
17424;SDS011;8830;50.978;5.058;2022-07-22T07:16:16;1.80;;;1.38;;
17424;SDS011;8830;50.978;5.058;2022-07-22T07:18:43;2.85;;;1.35;;
17424;SDS011;8830;50.978;5.058;2022-07-22T07:21:11;2.75;;;1.50;;
17424;SDS011;8830;50.978;5.058;2022-07-22T07:23:39;1.73;;;1.10;;
17424;SDS011;8830;50.978;5.058;2022-07-22T07:26:07;2.80;;;1.38;;
17424;SDS011;8830;50.978;5.058;2022-07-22T07:28:34;3.38;;;1.30;;
17424;SDS011;8830;50.978;5.058;2022-07-22T07:31:01;2.45;;;1.92;;
17424;SDS011;8830;50.978;5.058;2022-07-22T07:33:28;3.83;;;1.73;;
17424;SDS011;8830;50.978;5.058;2022-07-22T07:35:55;2.33;;;1.35;;
17424;SDS011;8830;50.978;5.058;2022-07-22T07:38:22;2.78;;;1.45;;
17424;SDS011;8830;50.978;5.058;2022-07-22T07:40:51;3.05;;;1.15;;
17424;SDS011;8830;50.978;5.058;2022-07-22T07:43:18;1.83;;;1.63;;
17424;SDS011;8830;50.978;5.058;2022-07-22T07:45:45;2.00;;;1.27;;
17424;SDS011;8830;50.978;5.058;2022-07-22T07:48:13;2.80;;;1.45;;
17424;SDS011;8830;50.978;5.058;2022-07-22T07:50:40;2.65;;;1.50;;
17424;SDS011;8830;50.978;5.058;2022-07-22T07:53:08;1.52;;;1.40;;
17424;SDS011;8830;50.978;5.058;2022-07-22T07:55:35;1.85;;;1.50;;
17424;SDS011;8830;50.978;5.058;2022-07-22T07:58:06;5.07;;;1.70;;
17424;SDS011;8830;50.978;5.058;2022-07-22T08:00:33;2.75;;;1.65;;
17424;SDS011;8830;50.978;5.058;2022-07-22T08:03:01;3.03;;;1.60;;
17424;SDS011;8830;50.978;5.058;2022-07-22T08:05:29;2.28;;;1.50;;
17424;SDS011;8830;50.978;5.058;2022-07-22T08:07:56;6.78;;;1.50;;
17424;SDS011;8830;50.978;5.058;2022-07-22T08:10:23;2.95;;;1.65;;
17424;SDS011;8830;50.978;5.058;2022-07-22T08:12:52;4.93;;;1.60;;
17424;SDS011;8830;50.978;5.058;2022-07-22T08:15:20;4.97;;;1.67;;
17424;SDS011;8830;50.978;5.058;2022-07-22T08:17:47;3.20;;;1.80;;
17424;SDS011;8830;50.978;5.058;2022-07-22T08:20:15;2.13;;;1.60;;
17424;SDS011;8830;50.978;5.058;2022-07-22T08:22:42;5.53;;;1.90;;
17424;SDS011;8830;50.978;5.058;2022-07-22T08:25:09;2.72;;;1.50;;
17424;SDS011;8830;50.978;5.058;2022-07-22T08:27:36;4.60;;;1.90;;
17424;SDS011;8830;50.978;5.058;2022-07-22T08:30:04;4.20;;;1.63;;
17424;SDS011;8830;50.978;5.058;2022-07-22T08:32:34;2.58;;;1.60;;
17424;SDS011;8830;50.978;5.058;2022-07-22T08:35:02;2.78;;;1.33;;
17424;SDS011;8830;50.978;5.058;2022-07-22T08:37:30;2.75;;;1.50;;
17424;SDS011;8830;50.978;5.058;2022-07-22T08:39:57;2.35;;;1.50;;
17424;SDS011;8830;50.978;5.058;2022-07-22T08:42:24;2.33;;;1.73;;
17424;SDS011;8830;50.978;5.058;2022-07-22T08:44:52;2.42;;;1.38;;
17424;SDS011;8830;50.978;5.058;2022-07-22T08:47:21;4.90;;;1.55;;
17424;SDS011;8830;50.978;5.058;2022-07-22T08:49:50;3.00;;;1.70;;
17424;SDS011;8830;50.978;5.058;2022-07-22T08:52:17;1.90;;;1.50;;
17424;SDS011;8830;50.978;5.058;2022-07-22T08:54:44;2.47;;;1.50;;
17424;SDS011;8830;50.978;5.058;2022-07-22T08:57:12;2.65;;;1.83;;
17424;SDS011;8830;50.978;5.058;2022-07-22T08:59:48;3.08;;;1.90;;
17424;SDS011;8830;50.978;5.058;2022-07-22T09:02:16;3.10;;;1.63;;
17424;SDS011;8830;50.978;5.058;2022-07-22T09:04:52;3.22;;;1.77;;
17424;SDS011;8830;50.978;5.058;2022-07-22T09:07:27;2.40;;;1.55;;
17424;SDS011;8830;50.978;5.058;2022-07-22T09:09:56;2.03;;;1.80;;
17424;SDS011;8830;50.978;5.058;2022-07-22T09:12:25;4.13;;;1.80;;
17424;SDS011;8830;50.978;5.058;2022-07-22T09:14:54;2.22;;;1.83;;
17424;SDS011;8830;50.978;5.058;2022-07-22T09:17:24;4.07;;;1.70;;
17424;SDS011;8830;50.978;5.058;2022-07-22T09:19:53;3.13;;;1.70;;
17424;SDS011;8830;50.978;5.058;2022-07-22T09:22:32;3.13;;;1.77;;
17424;SDS011;8830;50.978;5.058;2022-07-22T09:27:44;3.10;;;1.60;;
17424;SDS011;8830;50.978;5.058;2022-07-22T09:30:11;2.95;;;1.80;;
17424;SDS011;8830;50.978;5.058;2022-07-22T09:32:40;2.03;;;1.55;;
17424;SDS011;8830;50.978;5.058;2022-07-22T09:35:11;4.05;;;1.80;;
17424;SDS011;8830;50.978;5.058;2022-07-22T09:37:46;2.47;;;2.28;;
17424;SDS011;8830;50.978;5.058;2022-07-22T09:40:18;2.95;;;1.73;;
17424;SDS011;8830;50.978;5.058;2022-07-22T09:42:48;3.03;;;1.60;;
17424;SDS011;8830;50.978;5.058;2022-07-22T09:45:16;8.50;;;2.97;;
17424;SDS011;8830;50.978;5.058;2022-07-22T09:47:45;3.03;;;1.88;;
17424;SDS011;8830;50.978;5.058;2022-07-22T09:50:15;3.72;;;1.95;;
17424;SDS011;8830;50.978;5.058;2022-07-22T09:52:44;4.30;;;1.75;;
17424;SDS011;8830;50.978;5.058;2022-07-22T09:55:13;2.58;;;1.95;;
17424;SDS011;8830;50.978;5.058;2022-07-22T09:57:41;3.85;;;2.10;;
17424;SDS011;8830;50.978;5.058;2022-07-22T10:00:09;4.75;;;2.10;;
17424;SDS011;8830;50.978;5.058;2022-07-22T10:02:40;2.92;;;1.75;;
17424;SDS011;8830;50.978;5.058;2022-07-22T10:05:11;2.75;;;1.88;;
17424;SDS011;8830;50.978;5.058;2022-07-22T10:07:41;4.03;;;2.15;;
17424;SDS011;8830;50.978;5.058;2022-07-22T10:10:11;2.95;;;1.92;;
17424;SDS011;8830;50.978;5.058;2022-07-22T10:12:39;3.15;;;1.77;;
17424;SDS011;8830;50.978;5.058;2022-07-22T10:15:07;3.15;;;1.95;;
17424;SDS011;8830;50.978;5.058;2022-07-22T10:17:35;5.70;;;1.90;;
17424;SDS011;8830;50.978;5.058;2022-07-22T10:20:04;5.50;;;2.05;;
17424;SDS011;8830;50.978;5.058;2022-07-22T10:22:54;1.67;;;1.52;;
17424;SDS011;8830;50.978;5.058;2022-07-22T10:25:23;2.65;;;1.90;;
17424;SDS011;8830;50.978;5.058;2022-07-22T10:27:52;2.47;;;1.80;;
17424;SDS011;8830;50.978;5.058;2022-07-22T10:30:21;2.72;;;1.85;;
17424;SDS011;8830;50.978;5.058;2022-07-22T10:33:03;3.53;;;1.80;;
17424;SDS011;8830;50.978;5.058;2022-07-22T10:35:32;4.60;;;1.90;;
17424;SDS011;8830;50.978;5.058;2022-07-22T10:38:03;3.42;;;1.80;;
17424;SDS011;8830;50.978;5.058;2022-07-22T10:40:44;3.72;;;1.95;;
17424;SDS011;8830;50.978;5.058;2022-07-22T10:43:13;6.38;;;2.70;;
17424;SDS011;8830;50.978;5.058;2022-07-22T10:45:44;4.25;;;1.80;;
17424;SDS011;8830;50.978;5.058;2022-07-22T10:48:14;2.33;;;1.52;;
17424;SDS011;8830;50.978;5.058;2022-07-22T10:56:24;2.47;;;1.48;;
17424;SDS011;8830;50.978;5.058;2022-07-22T10:58:58;4.03;;;1.67;;
17424;SDS011;8830;50.978;5.058;2022-07-22T11:01:27;1.80;;;1.70;;
17424;SDS011;8830;50.978;5.058;2022-07-22T11:04:06;2.40;;;1.95;;
17424;SDS011;8830;50.978;5.058;2022-07-22T11:06:35;4.53;;;2.25;;
17424;SDS011;8830;50.978;5.058;2022-07-22T11:09:05;3.83;;;2.28;;
17424;SDS011;8830;50.978;5.058;2022-07-22T11:11:34;2.10;;;1.70;;
17424;SDS011;8830;50.978;5.058;2022-07-22T11:14:10;3.92;;;2.00;;
17424;SDS011;8830;50.978;5.058;2022-07-22T11:16:38;4.15;;;2.30;;
17424;SDS011;8830;50.978;5.058;2022-07-22T11:19:05;3.90;;;2.17;;
17424;SDS011;8830;50.978;5.058;2022-07-22T11:21:33;3.60;;;1.80;;
17424;SDS011;8830;50.978;5.058;2022-07-22T11:24:01;3.08;;;2.08;;
17424;SDS011;8830;50.978;5.058;2022-07-22T11:26:34;3.53;;;2.33;;
17424;SDS011;8830;50.978;5.058;2022-07-22T11:29:05;2.97;;;1.70;;
17424;SDS011;8830;50.978;5.058;2022-07-22T11:31:32;4.32;;;2.30;;
17424;SDS011;8830;50.978;5.058;2022-07-22T11:34:07;3.53;;;2.45;;
17424;SDS011;8830;50.978;5.058;2022-07-22T11:36:35;5.15;;;2.55;;
17424;SDS011;8830;50.978;5.058;2022-07-22T11:39:04;3.83;;;2.20;;
17424;SDS011;8830;50.978;5.058;2022-07-22T11:41:33;3.97;;;2.35;;
17424;SDS011;8830;50.978;5.058;2022-07-22T11:44:02;2.88;;;2.28;;
17424;SDS011;8830;50.978;5.058;2022-07-22T11:46:34;3.72;;;1.92;;
17424;SDS011;8830;50.978;5.058;2022-07-22T11:49:02;2.42;;;2.22;;
17424;SDS011;8830;50.978;5.058;2022-07-22T11:51:31;3.00;;;2.17;;
17424;SDS011;8830;50.978;5.058;2022-07-22T11:54:00;7.35;;;2.38;;
17424;SDS011;8830;50.978;5.058;2022-07-22T11:56:28;2.67;;;1.80;;
17424;SDS011;8830;50.978;5.058;2022-07-22T11:58:57;3.05;;;2.22;;
17424;SDS011;8830;50.978;5.058;2022-07-22T12:01:27;4.72;;;2.75;;
17424;SDS011;8830;50.978;5.058;2022-07-22T12:03:56;6.05;;;2.30;;
17424;SDS011;8830;50.978;5.058;2022-07-22T12:06:26;2.13;;;1.92;;
17424;SDS011;8830;50.978;5.058;2022-07-22T12:08:55;2.42;;;2.22;;
17424;SDS011;8830;50.978;5.058;2022-07-22T12:11:28;4.75;;;2.05;;
17424;SDS011;8830;50.978;5.058;2022-07-22T12:13:57;3.95;;;2.45;;
17424;SDS011;8830;50.978;5.058;2022-07-22T12:16:32;4.35;;;2.60;;
17424;SDS011;8830;50.978;5.058;2022-07-22T12:19:00;3.10;;;2.13;;
17424;SDS011;8830;50.978;5.058;2022-07-22T12:21:30;3.55;;;2.40;;
17424;SDS011;8830;50.978;5.058;2022-07-22T12:24:02;2.92;;;2.60;;
17424;SDS011;8830;50.978;5.058;2022-07-22T12:26:37;4.22;;;2.20;;
17424;SDS011;8830;50.978;5.058;2022-07-22T12:29:18;4.32;;;1.92;;
17424;SDS011;8830;50.978;5.058;2022-07-22T12:31:48;3.20;;;2.28;;
17424;SDS011;8830;50.978;5.058;2022-07-22T12:34:16;3.33;;;2.50;;
17424;SDS011;8830;50.978;5.058;2022-07-22T12:36:55;3.30;;;2.53;;
17424;SDS011;8830;50.978;5.058;2022-07-22T12:39:23;3.00;;;2.78;;
17424;SDS011;8830;50.978;5.058;2022-07-22T12:41:51;4.85;;;2.58;;
17424;SDS011;8830;50.978;5.058;2022-07-22T12:44:22;6.55;;;2.50;;
17424;SDS011;8830;50.978;5.058;2022-07-22T12:46:51;3.42;;;2.08;;
17424;SDS011;8830;50.978;5.058;2022-07-22T12:49:22;4.63;;;2.17;;
17424;SDS011;8830;50.978;5.058;2022-07-22T12:52:06;3.15;;;2.47;;
17424;SDS011;8830;50.978;5.058;2022-07-22T12:54:34;1.95;;;1.83;;
17424;SDS011;8830;50.978;5.058;2022-07-22T12:57:02;4.93;;;2.50;;
17424;SDS011;8830;50.978;5.058;2022-07-22T12:59:32;2.65;;;2.20;;
17424;SDS011;8830;50.978;5.058;2022-07-22T13:02:03;4.35;;;2.22;;
17424;SDS011;8830;50.978;5.058;2022-07-22T13:04:31;2.30;;;2.10;;
17424;SDS011;8830;50.978;5.058;2022-07-22T13:06:58;2.40;;;2.20;;
17424;SDS011;8830;50.978;5.058;2022-07-22T13:09:25;2.80;;;2.20;;
17424;SDS011;8830;50.978;5.058;2022-07-22T13:11:52;3.15;;;2.10;;
17424;SDS011;8830;50.978;5.058;2022-07-22T13:14:19;2.53;;;2.10;;
17424;SDS011;8830;50.978;5.058;2022-07-22T13:16:48;4.05;;;3.08;;
17424;SDS011;8830;50.978;5.058;2022-07-22T13:19:15;2.83;;;1.92;;
17424;SDS011;8830;50.978;5.058;2022-07-22T13:21:42;2.75;;;2.22;;
17424;SDS011;8830;50.978;5.058;2022-07-22T13:24:10;3.75;;;2.42;;
17424;SDS011;8830;50.978;5.058;2022-07-22T13:26:37;2.25;;;2.08;;
17424;SDS011;8830;50.978;5.058;2022-07-22T13:29:05;2.30;;;2.10;;
17424;SDS011;8830;50.978;5.058;2022-07-22T13:31:33;3.72;;;2.47;;
17424;SDS011;8830;50.978;5.058;2022-07-22T13:36:30;5.78;;;2.15;;
17424;SDS011;8830;50.978;5.058;2022-07-22T13:38:59;6.05;;;2.40;;
17424;SDS011;8830;50.978;5.058;2022-07-22T13:41:27;3.97;;;2.13;;
17424;SDS011;8830;50.978;5.058;2022-07-22T13:43:55;3.00;;;2.00;;
17424;SDS011;8830;50.978;5.058;2022-07-22T13:46:22;2.08;;;1.88;;
17424;SDS011;8830;50.978;5.058;2022-07-22T13:48:49;3.88;;;2.47;;
17424;SDS011;8830;50.978;5.058;2022-07-22T13:51:17;3.08;;;2.30;;
17424;SDS011;8830;50.978;5.058;2022-07-22T13:53:45;4.28;;;2.10;;
17424;SDS011;8830;50.978;5.058;2022-07-22T13:56:12;4.05;;;2.70;;
17424;SDS011;8830;50.978;5.058;2022-07-22T13:58:39;3.05;;;2.28;;
17424;SDS011;8830;50.978;5.058;2022-07-22T14:01:07;3.58;;;1.98;;
17424;SDS011;8830;50.978;5.058;2022-07-22T14:03:35;3.60;;;2.30;;
17424;SDS011;8830;50.978;5.058;2022-07-22T14:06:02;2.58;;;2.20;;
17424;SDS011;8830;50.978;5.058;2022-07-22T14:08:32;2.30;;;2.10;;
17424;SDS011;8830;50.978;5.058;2022-07-22T14:10:59;3.78;;;3.10;;
17424;SDS011;8830;50.978;5.058;2022-07-22T14:13:27;4.18;;;2.35;;
17424;SDS011;8830;50.978;5.058;2022-07-22T14:15:55;2.90;;;1.90;;
17424;SDS011;8830;50.978;5.058;2022-07-22T14:18:42;2.20;;;2.00;;
17424;SDS011;8830;50.978;5.058;2022-07-22T14:21:09;6.35;;;2.17;;
17424;SDS011;8830;50.978;5.058;2022-07-22T14:23:39;2.60;;;2.40;;
17424;SDS011;8830;50.978;5.058;2022-07-22T14:26:07;4.32;;;2.33;;
17424;SDS011;8830;50.978;5.058;2022-07-22T14:28:34;3.25;;;2.40;;
17424;SDS011;8830;50.978;5.058;2022-07-22T14:31:02;3.25;;;2.22;;
17424;SDS011;8830;50.978;5.058;2022-07-22T14:33:30;4.53;;;2.15;;
17424;SDS011;8830;50.978;5.058;2022-07-22T14:35:58;3.25;;;2.25;;
17424;SDS011;8830;50.978;5.058;2022-07-22T14:38:25;6.90;;;2.92;;
17424;SDS011;8830;50.978;5.058;2022-07-22T14:40:55;2.70;;;2.47;;
17424;SDS011;8830;50.978;5.058;2022-07-22T14:43:22;4.65;;;1.98;;
17424;SDS011;8830;50.978;5.058;2022-07-22T14:45:49;3.25;;;2.28;;
17424;SDS011;8830;50.978;5.058;2022-07-22T14:48:16;6.28;;;2.08;;
17424;SDS011;8830;50.978;5.058;2022-07-22T14:50:45;2.60;;;2.40;;
17424;SDS011;8830;50.978;5.058;2022-07-22T14:53:12;3.45;;;2.30;;
17424;SDS011;8830;50.978;5.058;2022-07-22T14:55:42;4.15;;;2.28;;
17424;SDS011;8830;50.978;5.058;2022-07-22T14:58:11;2.42;;;2.10;;
17424;SDS011;8830;50.978;5.058;2022-07-22T15:00:38;3.08;;;2.15;;
17424;SDS011;8830;50.978;5.058;2022-07-22T15:03:05;4.45;;;2.35;;
17424;SDS011;8830;50.978;5.058;2022-07-22T15:05:32;4.53;;;2.63;;
17424;SDS011;8830;50.978;5.058;2022-07-22T15:07:59;2.83;;;2.45;;
17424;SDS011;8830;50.978;5.058;2022-07-22T15:10:26;4.63;;;2.67;;
17424;SDS011;8830;50.978;5.058;2022-07-22T15:12:53;3.00;;;2.47;;
17424;SDS011;8830;50.978;5.058;2022-07-22T15:15:22;4.38;;;2.30;;